Time;durP1;ratioP1;P1;durP2;ratioP2;P2;SDS_P1;SDS_P2;PMS_P1;PMS_P2;Temp;Humidity;BMP_temperature;BMP_pressure;BME280_temperature;BME280_humidity;BME280_pressure;Samples;Min_cycle;Max_cycle;Signal;HPM_P1;HPM_P2
2023/03/04 00:01:23;;;;;;;6.45;2.90;;;;;;;5.32;73.08;102978.53;6101949;19;20014;-71
2023/03/04 00:03:34;;;;;;;13.68;3.40;;;;;;;5.37;72.96;102983.00;6088922;19;20010;-74
2023/03/04 00:05:38;;;;;;;10.43;3.33;;;;;;;5.28;73.30;102986.31;6100928;19;20011;-74
2023/03/04 00:07:43;;;;;;;5.75;2.83;;;;;;;5.32;73.36;102984.66;6099429;19;20094;-74
2023/03/04 00:09:48;;;;;;;10.65;3.10;;;;;;;5.33;73.30;102983.81;6093482;19;20010;-73
2023/03/04 00:11:55;;;;;;;11.85;3.22;;;;;;;5.31;72.99;102989.84;6104321;19;20018;-74
2023/03/04 00:14:01;;;;;;;14.00;2.80;;;;;;;5.29;73.05;102995.00;6097971;19;20050;-73
2023/03/04 00:16:06;;;;;;;7.07;2.95;;;;;;;5.30;73.28;102991.56;6099545;19;20220;-73
2023/03/04 00:18:11;;;;;;;8.05;2.65;;;;;;;5.36;72.78;102989.06;6102459;19;20018;-73
2023/03/04 00:20:22;;;;;;;15.30;2.67;;;;;;;5.31;73.21;103000.28;6103278;19;20014;-73
2023/03/04 00:22:26;;;;;;;9.43;2.30;;;;;;;5.28;73.33;102985.47;6099921;19;20011;-74
2023/03/04 00:24:31;;;;;;;11.55;2.92;;;;;;;5.28;73.75;102991.53;6101772;19;20510;-73
2023/03/04 00:26:42;;;;;;;14.50;4.28;;;;;;;5.34;73.75;102990.75;6101333;19;20037;-71
2023/03/04 00:28:51;;;;;;;;;;;;;;;5.36;73.33;102990.78;6102410;19;20017;-74
2023/03/04 00:30:56;;;;;;;9.10;2.65;;;;;;;5.35;73.31;102981.22;6097733;19;19915;-73
2023/03/04 00:33:01;;;;;;;12.23;2.45;;;;;;;5.34;73.43;102984.66;6100339;19;20017;-74
2023/03/04 00:35:07;;;;;;;7.57;2.30;;;;;;;5.34;73.41;102984.66;6100478;19;20015;-73
2023/03/04 00:37:11;;;;;;;7.22;2.30;;;;;;;5.30;73.61;102982.88;6100243;19;20108;-73
2023/03/04 00:39:17;;;;;;;8.32;2.35;;;;;;;5.31;73.27;102982.03;6096520;19;20875;-70
2023/03/04 00:41:21;;;;;;;9.18;2.60;;;;;;;5.28;73.39;102983.72;6098318;19;20018;-70
2023/03/04 00:43:26;;;;;;;8.20;2.97;;;;;;;5.32;73.75;102991.59;6100088;19;20043;-71
2023/03/04 00:45:34;;;;;;;10.32;2.53;;;;;;;5.35;73.46;102983.84;6097876;19;20015;-71
2023/03/04 00:47:38;;;;;;;15.13;2.78;;;;;;;5.32;73.61;102982.06;6100380;19;20010;-71
2023/03/04 00:49:43;;;;;;;8.77;2.67;;;;;;;5.27;73.85;102976.75;6098083;19;20027;-71
2023/03/04 00:51:49;;;;;;;7.93;2.38;;;;;;;5.26;73.93;102975.00;6099955;19;20709;-71
2023/03/04 00:53:54;;;;;;;8.68;2.08;;;;;;;5.28;73.83;102980.25;6095407;19;20011;-71
2023/03/04 00:55:59;;;;;;;8.23;2.10;;;;;;;5.26;73.88;102977.59;6099985;19;20010;-70
2023/03/04 00:58:04;;;;;;;9.57;2.38;;;;;;;5.32;73.90;102970.72;6096793;19;20017;-71
2023/03/04 01:00:11;;;;;;;9.57;2.45;;;;;;;5.24;74.04;102979.31;6095832;19;20011;-70
2023/03/04 01:02:18;;;;;;;7.03;2.38;;;;;;;5.31;73.90;102982.03;6093429;19;20015;-70
2023/03/04 01:04:23;;;;;;;7.35;2.08;;;;;;;5.24;74.24;102989.75;6101086;19;20010;-71
2023/03/04 01:06:29;;;;;;;5.95;1.95;;;;;;;5.21;74.46;102984.50;6098574;19;20025;-71
2023/03/04 01:08:33;;;;;;;8.20;2.45;;;;;;;5.21;74.57;102988.81;6101252;19;20014;-72
2023/03/04 01:10:38;;;;;;;14.75;3.08;;;;;;;5.20;74.41;102985.31;6099686;19;20036;-71
2023/03/04 01:12:44;;;;;;;8.98;2.67;;;;;;;5.21;74.40;102989.72;6101566;19;20025;-70
2023/03/04 01:14:49;;;;;;;10.13;2.53;;;;;;;5.27;73.41;102989.81;6107137;19;20017;-70
2023/03/04 01:16:54;;;;;;;7.50;2.20;;;;;;;5.20;73.38;102985.31;6107852;19;20014;-70
2023/03/04 01:19:01;;;;;;;7.97;2.25;;;;;;;5.20;73.21;102980.13;6106678;19;20030;-71
2023/03/04 01:21:07;;;;;;;8.70;2.17;;;;;;;5.23;72.60;102974.06;6107596;19;20026;-70
2023/03/04 01:23:11;;;;;;;7.47;2.10;;;;;;;5.21;72.52;102984.50;6107499;19;20018;-71
2023/03/04 01:25:16;;;;;;;6.60;1.90;;;;;;;5.21;72.92;102971.47;6104116;19;20042;-71
2023/03/04 01:27:21;;;;;;;15.88;3.58;;;;;;;5.27;72.52;102968.94;6105893;19;20018;-71
2023/03/04 01:29:26;;;;;;;7.60;2.70;;;;;;;5.25;72.16;102961.94;6107072;19;20011;-71
2023/03/04 01:31:33;;;;;;;9.77;2.38;;;;;;;5.24;72.31;102966.28;6104663;19;20018;-71
2023/03/04 01:33:38;;;;;;;8.00;2.58;;;;;;;5.33;71.80;102959.47;6104223;19;20628;-71
2023/03/04 01:35:45;;;;;;;6.60;2.70;;;;;;;5.26;71.90;102954.13;6104287;19;20014;-71
2023/03/04 01:37:50;;;;;;;10.40;2.40;;;;;;;5.26;72.48;102954.13;6104980;19;21166;-70
2023/03/04 01:39:55;;;;;;;8.77;2.63;;;;;;;5.25;72.11;102955.00;6105668;19;20015;-70
2023/03/04 01:42:00;;;;;;;8.40;2.10;;;;;;;5.28;71.97;102949.84;6103648;19;20010;-70
2023/03/04 01:44:05;;;;;;;4.30;2.20;;;;;;;5.25;72.13;102952.41;6104958;19;20022;-70
2023/03/04 01:46:14;;;;;;;11.73;2.55;;;;;;;5.25;72.23;102949.78;6101828;19;20015;-71
2023/03/04 01:48:22;;;;;;;4.75;1.88;;;;;;;5.32;71.83;102947.25;6102855;19;20121;-71
2023/03/04 01:50:32;;;;;;;6.88;2.03;;;;;;;5.32;72.09;102947.25;6103077;19;20010;-71
2023/03/04 01:52:42;;;;;;;7.25;1.95;;;;;;;5.24;72.10;102945.44;6100351;19;20022;-71
2023/03/04 01:54:50;;;;;;;15.10;2.53;;;;;;;5.24;72.31;102945.44;6106736;19;20797;-71
2023/03/04 01:56:56;;;;;;;8.38;2.22;;;;;;;5.19;72.51;102941.00;6105651;19;20099;-71
2023/03/04 01:59:16;;;;;;;7.32;2.20;;;;;;;5.18;72.76;102934.91;6104795;19;20019;-71
2023/03/04 02:01:20;;;;;;;7.28;2.50;;;;;;;5.14;72.96;102934.84;6097525;19;20106;-71
2023/03/04 02:03:26;;;;;;;8.98;2.10;;;;;;;5.18;72.68;102928.81;6106449;19;20010;-73
2023/03/04 02:05:32;;;;;;;7.13;1.95;;;;;;;5.17;73.15;102927.94;6106437;19;20090;-73
2023/03/04 02:07:39;;;;;;;9.52;3.40;;;;;;;5.22;73.02;102925.41;6103827;19;20038;-73
2023/03/04 02:09:44;;;;;;;7.32;2.15;;;;;;;5.22;73.05;102925.41;6104858;19;20584;-73
2023/03/04 02:11:51;;;;;;;8.07;2.10;;;;;;;5.21;73.02;102926.25;6082124;19;20021;-74
2023/03/04 02:13:55;;;;;;;9.55;2.13;;;;;;;5.21;73.41;102913.22;6102100;19;20124;-74
2023/03/04 02:16:00;;;;;;;4.22;1.83;;;;;;;5.17;73.62;102914.91;6100504;19;20009;-73
2023/03/04 02:18:15;;;;;;;6.25;2.22;;;;;;;5.18;73.96;102913.19;6103835;19;20045;-73
2023/03/04 02:20:32;;;;;;;6.97;2.20;;;;;;;5.21;73.81;102915.81;6102107;19;20025;-73
2023/03/04 02:22:44;;;;;;;8.27;2.30;;;;;;;5.23;73.29;102904.56;6102007;19;20455;-74
2023/03/04 02:24:54;;;;;;;5.60;2.20;;;;;;;5.19;73.22;102908.00;6102661;19;20031;-73
2023/03/04 02:27:01;;;;;;;5.20;2.40;;;;;;;5.25;72.99;102905.47;6102420;19;20033;-73
2023/03/04 02:29:06;;;;;;;8.90;2.92;;;;;;;5.20;73.48;102901.06;6102444;19;20017;-74
2023/03/04 02:31:23;;;;;;;8.80;2.22;;;;;;;5.13;73.41;102907.03;6100885;19;20526;-73
2023/03/04 02:33:28;;;;;;;4.75;2.20;;;;;;;5.12;73.33;102905.28;6099725;19;20024;-73
2023/03/04 02:35:33;;;;;;;6.80;1.95;;;;;;;5.10;73.28;102897.41;6103631;19;20013;-73
2023/03/04 02:37:41;;;;;;;8.90;3.42;;;;;;;5.14;73.15;102904.44;6101872;19;20010;-72
2023/03/04 02:39:48;;;;;;;7.25;2.22;;;;;;;5.17;73.49;102899.28;6105622;19;20018;-73
2023/03/04 02:41:54;;;;;;;5.55;1.95;;;;;;;5.17;73.27;102888.84;6102045;19;20014;-74
2023/03/04 02:44:05;;;;;;;5.68;1.77;;;;;;;5.19;73.03;102888.88;6105094;19;20010;-73
2023/03/04 02:46:16;;;;;;;9.27;2.13;;;;;;;5.19;72.99;102881.94;6101055;19;20103;-73
2023/03/04 02:48:23;;;;;;;7.57;2.03;;;;;;;5.18;72.61;102889.72;6102367;19;20467;-73
2023/03/04 02:50:31;;;;;;;7.68;2.28;;;;;;;5.13;72.97;102887.03;6104756;19;20020;-73
2023/03/04 02:52:36;;;;;;;10.02;2.40;;;;;;;5.08;73.11;102891.31;6099949;19;20010;-74
2023/03/04 02:54:40;;;;;;;6.97;2.88;;;;;;;5.07;72.93;102884.34;6101122;19;20059;-72
2023/03/04 02:56:49;;;;;;;7.28;2.20;;;;;;;5.08;73.21;102891.31;6101416;19;20015;-72
2023/03/04 02:58:56;;;;;;;4.43;1.90;;;;;;;5.08;72.66;102891.31;6101387;19;20744;-72
2023/03/04 03:01:03;;;;;;;5.70;1.98;;;;;;;5.08;72.98;102886.09;6101641;19;20075;-72
2023/03/04 03:03:08;;;;;;;5.93;2.13;;;;;;;5.09;72.51;102884.38;6100994;19;20007;-72
2023/03/04 03:05:14;;;;;;;10.18;2.17;;;;;;;5.11;72.70;102883.56;6102818;19;20090;-72
2023/03/04 03:07:19;;;;;;;8.80;2.17;;;;;;;5.11;72.48;102878.34;6098450;19;20077;-71
2023/03/04 03:09:24;;;;;;;15.18;2.65;;;;;;;5.10;72.84;102879.19;6099583;19;20046;-71
2023/03/04 03:11:29;;;;;;;12.80;3.28;;;;;;;5.10;73.24;102880.91;6102479;19;20103;-73
2023/03/04 03:13:34;;;;;;;4.53;1.92;;;;;;;5.12;73.13;102885.28;6101452;19;20019;-72
2023/03/04 03:15:41;;;;;;;4.63;2.45;;;;;;;5.11;73.21;102874.84;6102344;19;20074;-72
2023/03/04 03:17:48;;;;;;;5.53;1.88;;;;;;;5.06;73.34;102885.22;6102751;19;20011;-72
2023/03/04 03:19:53;;;;;;;6.55;2.10;;;;;;;5.03;73.69;102879.97;6102472;19;20718;-72
2023/03/04 03:21:58;;;;;;;7.75;1.90;;;;;;;5.04;73.87;102886.91;6101874;19;21101;-72
2023/03/04 03:24:03;;;;;;;5.93;2.65;;;;;;;5.04;73.99;102881.69;6102161;19;20025;-72
2023/03/04 03:26:07;;;;;;;9.75;2.28;;;;;;;5.04;73.51;102881.69;6101364;19;20453;-75
2023/03/04 03:28:12;;;;;;;5.13;2.10;;;;;;;5.05;73.40;102883.44;6102410;19;20010;-70
2023/03/04 03:30:18;;;;;;;6.45;1.92;;;;;;;5.01;73.67;102881.66;6101691;19;20667;-71
2023/03/04 03:32:22;;;;;;;9.07;1.92;;;;;;;5.01;73.59;102879.06;6100435;19;20015;-70
2023/03/04 03:34:30;;;;;;;8.63;2.65;;;;;;;4.99;73.45;102872.94;6101462;19;20015;-69
2023/03/04 03:36:34;;;;;;;16.70;2.67;;;;;;;5.00;73.35;102880.78;6101914;19;20955;-70
2023/03/04 03:38:40;;;;;;;4.53;1.63;;;;;;;5.07;72.82;102871.31;6100932;19;20745;-69
2023/03/04 03:40:44;;;;;;;5.55;2.13;;;;;;;5.07;72.49;102877.41;6102367;19;20007;-70
2023/03/04 03:42:49;;;;;;;9.25;2.03;;;;;;;5.08;72.99;102880.88;6101530;19;20047;-70
2023/03/04 03:44:54;;;;;;;10.75;2.58;;;;;;;5.05;72.80;102878.22;6101251;19;20018;-70
2023/03/04 03:46:59;;;;;;;5.45;2.05;;;;;;;5.07;72.97;102882.63;6099411;19;20026;-70
2023/03/04 03:49:04;;;;;;;5.18;1.80;;;;;;;5.03;73.31;102885.19;6102593;19;20014;-71
2023/03/04 03:51:11;;;;;;;9.88;2.72;;;;;;;5.04;73.14;102872.16;6067027;19;20082;-72
2023/03/04 03:53:16;;;;;;;11.70;1.98;;;;;;;5.02;72.85;102875.59;6093697;19;20015;-70
2023/03/04 03:55:21;;;;;;;7.78;1.92;;;;;;;5.01;72.91;102874.72;6100777;19;20094;-70
2023/03/04 03:57:26;;;;;;;10.68;2.10;;;;;;;5.02;73.39;102880.78;6099199;19;20055;-71
2023/03/04 03:59:30;;;;;;;4.78;1.95;;;;;;;5.06;73.09;102875.66;6100605;19;20078;-71
2023/03/04 04:01:37;;;;;;;6.85;2.45;;;;;;;5.06;72.96;102877.41;6099162;19;20456;-71
2023/03/04 04:03:42;;;;;;;5.47;2.08;;;;;;;4.99;73.61;102879.03;6099433;19;20026;-70
2023/03/04 04:05:49;;;;;;;5.72;1.52;;;;;;;4.99;73.44;102884.22;6103407;19;20014;-70
2023/03/04 04:07:58;;;;;;;4.15;1.85;;;;;;;5.00;73.60;102885.09;6101541;19;20034;-70
2023/03/04 04:10:03;;;;;;;5.15;1.77;;;;;;;5.04;73.27;102879.09;6100831;19;20014;-71
2023/03/04 04:12:09;;;;;;;3.17;1.45;;;;;;;5.02;73.35;102886.88;6104918;19;20025;-69
2023/03/04 04:14:15;;;;;;;8.10;1.83;;;;;;;5.01;72.78;102886.88;6103470;19;20103;-70
2023/03/04 04:16:20;;;;;;;6.35;1.67;;;;;;;5.02;73.22;102884.28;6103173;19;20015;-70
2023/03/04 04:18:25;;;;;;;4.95;1.95;;;;;;;5.05;72.72;102888.66;6105425;19;20019;-71
2023/03/04 04:20:30;;;;;;;8.80;1.73;;;;;;;5.03;72.86;102890.38;6105429;19;20047;-70
2023/03/04 04:22:34;;;;;;;4.95;1.67;;;;;;;5.03;73.35;102883.44;6101659;19;20006;-70
2023/03/04 04:24:43;;;;;;;5.10;1.70;;;;;;;5.09;73.68;102879.19;6101773;19;20050;-70
2023/03/04 04:26:48;;;;;;;7.00;1.63;;;;;;;5.07;73.80;102876.53;6102713;19;20097;-70
2023/03/04 04:28:53;;;;;;;5.15;1.40;;;;;;;5.01;74.31;102882.53;6099800;19;20014;-70
2023/03/04 04:30:58;;;;;;;7.60;2.20;;;;;;;5.02;74.12;102886.00;6100158;19;20230;-70
2023/03/04 04:33:03;;;;;;;8.48;2.45;;;;;;;5.02;74.09;102875.59;6098836;19;20007;-70
2023/03/04 04:35:10;;;;;;;3.65;1.60;;;;;;;4.97;74.80;102885.06;6098897;19;20026;-70
2023/03/04 04:37:14;;;;;;;8.02;1.83;;;;;;;4.94;74.63;102879.81;6098727;19;20013;-70
2023/03/04 04:39:19;;;;;;;3.25;1.55;;;;;;;4.96;74.69;102893.75;6097259;19;20392;-70
2023/03/04 04:41:30;;;;;;;4.63;1.50;;;;;;;4.93;74.85;102896.31;6098840;19;20020;-70
2023/03/04 04:43:35;;;;;;;5.00;1.92;;;;;;;4.92;73.88;102877.16;6098560;19;20014;-70
2023/03/04 04:45:40;;;;;;;6.65;2.10;;;;;;;4.91;74.39;102891.06;6099398;19;20014;-70
2023/03/04 04:47:45;;;;;;;7.20;2.28;;;;;;;4.87;74.63;102891.88;6101533;19;20905;-70
2023/03/04 04:49:50;;;;;;;5.10;1.90;;;;;;;4.92;73.93;102891.94;6102006;19;20010;-70
2023/03/04 04:52:08;;;;;;;6.57;1.65;;;;;;;4.94;73.46;102883.28;6104762;19;20904;-70
2023/03/04 04:54:17;;;;;;;5.00;1.80;;;;;;;4.91;73.27;102890.19;6092928;19;20056;-73
2023/03/04 04:56:25;;;;;;;11.07;2.35;;;;;;;4.87;72.90;102885.75;6103818;19;20055;-75
2023/03/04 04:58:32;;;;;;;5.68;1.48;;;;;;;4.89;72.88;102887.53;6103391;19;20014;-72
2023/03/04 05:00:37;;;;;;;6.72;1.92;;;;;;;4.86;72.79;102894.44;6103538;19;20591;-73
2023/03/04 05:02:42;;;;;;;4.75;2.05;;;;;;;4.85;72.83;102890.97;6102491;19;20015;-72
2023/03/04 05:04:48;;;;;;;6.65;2.45;;;;;;;4.85;73.19;102901.38;6101187;19;20259;-73
2023/03/04 05:06:52;;;;;;;10.35;2.67;;;;;;;4.84;72.99;102894.41;6104236;19;20246;-73
2023/03/04 05:08:55;;;;;;;8.77;2.17;;;;;;;4.81;73.49;102890.00;6103334;19;20474;-73
2023/03/04 05:11:02;;;;;;;5.25;2.28;;;;;;;4.80;73.47;102893.50;6100256;19;20011;-73
2023/03/04 05:13:07;;;;;;;4.43;2.72;;;;;;;4.80;73.65;102888.28;6103777;19;20006;-73
2023/03/04 05:15:15;;;;;;;6.68;1.98;;;;;;;4.79;74.08;102886.53;6102789;19;20039;-73
2023/03/04 05:17:20;;;;;;;7.57;2.33;;;;;;;4.81;73.82;102889.16;6099258;19;20693;-73
2023/03/04 05:19:25;;;;;;;6.25;1.90;;;;;;;4.81;74.38;102889.16;6104703;19;20019;-72
2023/03/04 05:21:30;;;;;;;7.38;1.90;;;;;;;4.77;74.39;102890.84;6101888;19;20013;-73
2023/03/04 05:23:37;;;;;;;9.25;2.30;;;;;;;4.76;74.80;102881.25;6104000;19;20062;-73
2023/03/04 05:25:42;;;;;;;9.48;2.05;;;;;;;4.76;75.00;102888.19;6103628;19;20451;-73
2023/03/04 05:27:47;;;;;;;10.35;2.53;;;;;;;4.74;75.40;102892.50;6103261;19;20011;-72
2023/03/04 05:29:52;;;;;;;5.30;1.95;;;;;;;4.75;75.40;102886.44;6103208;19;20090;-73
2023/03/04 05:32:00;;;;;;;7.22;2.03;;;;;;;4.79;75.80;102886.53;6103469;19;20015;-73
2023/03/04 05:34:05;;;;;;;4.10;1.67;;;;;;;4.78;76.46;102892.56;6104292;19;20015;-73
2023/03/04 05:36:14;;;;;;;7.78;2.25;;;;;;;4.79;76.87;102891.75;6106348;19;20017;-70
2023/03/04 05:38:21;;;;;;;4.60;1.90;;;;;;;4.78;76.99;102886.50;6103027;19;20019;-70
2023/03/04 05:40:26;;;;;;;19.35;2.67;;;;;;;4.78;77.26;102884.75;6103729;19;20022;-70
2023/03/04 05:42:30;;;;;;;7.70;2.80;;;;;;;4.77;77.12;102887.38;6103273;19;20021;-70
2023/03/04 05:44:35;;;;;;;7.05;2.55;;;;;;;4.76;77.65;102894.28;6102395;19;20531;-70
2023/03/04 05:46:40;;;;;;;2.95;1.80;;;;;;;4.75;77.47;102889.94;5954177;19;2889970;-70
2023/03/04 05:48:47;;;;;;;14.20;2.22;;;;;;;4.76;77.55;102888.19;6103807;19;20021;-70
2023/03/04 05:50:55;;;;;;;7.70;2.10;;;;;;;4.75;77.87;102887.31;6104118;19;20010;-70
2023/03/04 05:53:00;;;;;;;7.72;2.47;;;;;;;4.74;77.64;102876.88;6103371;19;20014;-71
2023/03/04 05:55:06;;;;;;;4.80;2.58;;;;;;;4.72;78.17;102876.88;6106100;19;20047;-71
2023/03/04 05:57:10;;;;;;;12.00;2.35;;;;;;;4.73;77.96;102880.34;6104838;19;20042;-71
2023/03/04 05:59:19;;;;;;;8.68;2.15;;;;;;;4.77;77.91;102884.75;6104861;19;20392;-71
2023/03/04 06:01:24;;;;;;;11.75;2.55;;;;;;;4.78;77.80;102873.47;6099190;19;20007;-71
2023/03/04 06:03:29;;;;;;;5.55;2.08;;;;;;;4.83;77.30;102871.81;6101570;19;20014;-69
2023/03/04 06:05:36;;;;;;;8.00;2.13;;;;;;;4.82;77.54;102877.91;6104161;19;20011;-69
2023/03/04 06:07:41;;;;;;;5.90;1.98;;;;;;;4.81;77.50;102874.38;6104581;19;20007;-69
2023/03/04 06:09:47;;;;;;;8.38;2.40;;;;;;;4.81;77.60;102874.38;6103568;19;20070;-69
2023/03/04 06:11:51;;;;;;;7.13;2.38;;;;;;;4.77;77.70;102877.81;6104469;19;20067;-69
2023/03/04 06:13:56;;;;;;;12.82;2.55;;;;;;;4.78;77.74;102878.69;6103351;19;20022;-69
2023/03/04 06:16:03;;;;;;;4.78;1.95;;;;;;;4.77;77.49;102872.59;6104389;19;20031;-71
2023/03/04 06:18:10;;;;;;;8.32;1.85;;;;;;;4.84;77.79;102877.06;6102451;19;20024;-71
2023/03/04 06:20:15;;;;;;;7.45;2.63;;;;;;;4.83;77.96;102883.13;6093761;19;20023;-71
2023/03/04 06:22:22;;;;;;;7.97;1.95;;;;;;;4.86;78.16;102884.88;6103936;19;20097;-71
2023/03/04 06:24:27;;;;;;;6.45;2.25;;;;;;;4.83;78.63;102890.06;6102273;19;20018;-71
2023/03/04 06:26:32;;;;;;;6.15;1.85;;;;;;;4.83;79.13;102887.44;6104761;19;20614;-71
2023/03/04 06:28:36;;;;;;;9.40;2.65;;;;;;;4.77;79.16;102889.97;6104233;19;20023;-71
2023/03/04 06:30:41;;;;;;;12.18;2.13;;;;;;;4.73;79.36;102893.34;6101555;19;20030;-71
2023/03/04 06:32:46;;;;;;;4.75;2.10;;;;;;;4.75;79.85;102887.31;6101322;19;20025;-71
2023/03/04 06:34:51;;;;;;;8.63;2.80;;;;;;;4.73;80.48;102889.03;6103688;19;20011;-71
2023/03/04 06:36:56;;;;;;;6.95;2.60;;;;;;;4.74;80.50;102893.41;6102987;19;20015;-71
2023/03/04 06:39:04;;;;;;;10.68;2.17;;;;;;;4.71;80.89;102897.66;6102208;19;20010;-70
2023/03/04 06:41:10;;;;;;;4.68;1.95;;;;;;;4.70;81.04;102890.72;6102288;19;20011;-71
2023/03/04 06:43:14;;;;;;;6.35;2.25;;;;;;;4.72;81.44;102883.81;6101673;19;20138;-71
2023/03/04 06:45:19;;;;;;;10.50;2.80;;;;;;;4.71;81.53;102888.09;6097296;19;20648;-71
2023/03/04 06:47:24;;;;;;;6.65;2.30;;;;;;;4.70;81.42;102895.91;6099711;19;20554;-71
2023/03/04 06:49:29;;;;;;;6.72;1.92;;;;;;;4.72;81.68;102902.91;6101057;19;20011;-71
2023/03/04 06:51:34;;;;;;;5.75;2.10;;;;;;;4.73;81.97;102901.16;6105058;19;20758;-70
2023/03/04 06:53:40;;;;;;;8.18;2.22;;;;;;;4.72;81.87;102892.50;6100219;19;20078;-72
2023/03/04 06:55:48;;;;;;;5.28;2.22;;;;;;;4.71;82.26;102889.84;6100988;19;20042;-71
2023/03/04 06:57:53;;;;;;;5.03;2.35;;;;;;;4.74;82.04;102902.91;6101392;19;20018;-70
2023/03/04 06:59:58;;;;;;;4.93;2.20;;;;;;;4.73;82.35;102902.03;6103494;19;20771;-71
2023/03/04 07:02:02;;;;;;;6.53;2.42;;;;;;;4.74;82.21;102910.72;6102649;19;20039;-70
2023/03/04 07:04:07;;;;;;;7.85;2.20;;;;;;;4.75;81.98;102897.75;6103514;19;20019;-71
2023/03/04 07:06:13;;;;;;;8.25;2.40;;;;;;;4.78;82.22;102909.94;6102852;19;20011;-70
2023/03/04 07:08:18;;;;;;;4.65;2.42;;;;;;;4.81;81.51;102905.66;6105076;19;20007;-71
2023/03/04 07:10:25;;;;;;;6.38;2.08;;;;;;;4.91;81.04;102911.03;6100187;19;20742;-69
2023/03/04 07:12:32;;;;;;;5.53;2.20;;;;;;;4.97;80.27;102911.13;6101394;19;20047;-70
2023/03/04 07:14:37;;;;;;;5.15;1.80;;;;;;;4.99;80.39;102901.59;6104097;19;20031;-70
2023/03/04 07:16:42;;;;;;;6.63;2.53;;;;;;;5.00;79.54;102909.44;6103212;19;20014;-71
2023/03/04 07:18:50;;;;;;;6.18;3.08;;;;;;;5.01;79.08;102908.59;6103220;19;20015;-69
2023/03/04 07:20:55;;;;;;;5.80;2.08;;;;;;;5.01;79.33;102908.59;6105449;19;20093;-71
2023/03/04 07:23:00;;;;;;;6.25;2.10;;;;;;;5.02;79.18;102915.53;6103184;19;20010;-70
2023/03/04 07:25:05;;;;;;;4.22;2.17;;;;;;;5.03;78.85;102917.31;6103392;19;20010;-71
2023/03/04 07:27:10;;;;;;;7.72;2.38;;;;;;;5.03;79.49;102927.72;6101522;19;20010;-71
2023/03/04 07:29:18;;;;;;;2.75;1.67;;;;;;;4.96;81.14;102915.44;6102922;19;20102;-72
2023/03/04 07:31:26;;;;;;;7.95;1.50;;;;;;;4.99;82.18;102931.13;6098828;19;20829;-71
2023/03/04 07:33:31;;;;;;;4.45;1.88;;;;;;;4.92;83.25;102933.59;6104665;19;20014;-71
2023/03/04 07:35:36;;;;;;;4.00;1.70;;;;;;;4.96;83.61;102925.00;6103945;19;20014;-71
2023/03/04 07:37:41;;;;;;;2.42;1.80;;;;;;;4.97;83.96;102927.63;6103597;19;20787;-71
2023/03/04 07:39:46;;;;;;;4.18;1.50;;;;;;;5.00;84.03;102932.00;6103801;19;20642;-71
2023/03/04 07:41:51;;;;;;;5.28;1.60;;;;;;;5.00;83.81;102932.00;6102435;19;20514;-71
2023/03/04 07:43:57;;;;;;;4.13;1.80;;;;;;;5.00;83.61;102932.00;6083282;19;20014;-72
2023/03/04 07:46:04;;;;;;;8.65;2.40;;;;;;;4.94;84.55;102937.13;6100785;19;20011;-71
2023/03/04 07:48:09;;;;;;;9.30;2.13;;;;;;;5.01;84.15;102933.78;6097013;19;20487;-71
2023/03/04 07:50:14;;;;;;;3.13;1.73;;;;;;;5.13;83.95;102936.56;6099072;19;20066;-71
2023/03/04 07:52:21;;;;;;;5.15;1.77;;;;;;;5.18;84.17;102942.72;6095393;19;20078;-71
2023/03/04 07:54:26;;;;;;;4.60;2.05;;;;;;;5.26;84.15;102942.84;6097873;19;20023;-71
2023/03/04 07:56:33;;;;;;;4.90;1.83;;;;;;;5.34;83.69;102949.03;6100264;19;20011;-71
2023/03/04 07:58:38;;;;;;;4.65;1.67;;;;;;;5.33;83.48;102956.84;6099548;19;20414;-71
2023/03/04 08:00:43;;;;;;;5.00;1.90;;;;;;;5.33;84.00;102951.66;6099652;19;20010;-71
2023/03/04 08:02:51;;;;;;;2.70;1.63;;;;;;;5.28;84.44;102952.44;6098556;19;20680;-71
2023/03/04 08:04:56;;;;;;;7.97;2.20;;;;;;;5.35;85.22;102957.75;6096392;19;20023;-71
2023/03/04 08:07:03;;;;;;;9.00;1.73;;;;;;;5.35;84.66;102956.03;6099271;19;20022;-71
2023/03/04 08:09:09;;;;;;;6.68;1.83;;;;;;;5.36;84.48;102954.28;6100113;19;20011;-71
2023/03/04 08:11:16;;;;;;;5.60;1.70;;;;;;;5.41;84.37;102952.63;6097184;19;20024;-71
2023/03/04 08:13:21;;;;;;;5.40;2.00;;;;;;;5.54;84.28;102938.03;6095501;19;20630;-72
2023/03/04 08:15:31;;;;;;;5.90;2.30;;;;;;;5.71;83.71;102941.75;6100090;19;20018;-71
2023/03/04 08:17:37;;;;;;;3.15;1.85;;;;;;;5.62;83.56;102936.41;6099596;19;20038;-71
2023/03/04 08:19:45;;;;;;;3.95;2.00;;;;;;;5.66;83.88;102941.72;6100375;19;20014;-71
2023/03/04 08:21:50;;;;;;;6.15;2.17;;;;;;;5.80;82.99;102943.63;6100055;19;20010;-71
2023/03/04 08:23:56;;;;;;;3.17;1.73;;;;;;;5.78;83.01;102946.19;6096553;19;20043;-74
2023/03/04 08:26:01;;;;;;;1.70;1.17;;;;;;;5.86;82.70;102939.34;6047063;19;20015;-74
2023/03/04 08:28:06;;;;;;;2.90;1.40;;;;;;;5.97;82.30;102942.13;6094453;19;20018;-74
2023/03/04 08:30:13;;;;;;;1.80;1.30;;;;;;;6.25;81.02;102945.06;6094758;19;20006;-74
2023/03/04 08:32:17;;;;;;;3.67;1.33;;;;;;;6.28;81.17;102942.50;6095418;19;20014;-74
2023/03/04 08:34:24;;;;;;;6.32;1.40;;;;;;;6.34;80.66;102942.53;6094356;19;20042;-75
2023/03/04 08:36:32;;;;;;;2.45;2.28;;;;;;;6.24;79.76;102941.59;6100241;19;20430;-74
2023/03/04 08:38:36;;;;;;;3.60;1.25;;;;;;;6.43;79.31;102939.19;6099869;19;20066;-74
2023/03/04 08:40:41;;;;;;;2.78;1.13;;;;;;;6.52;78.51;102937.50;6098824;19;20093;-75
2023/03/04 08:42:46;;;;;;;2.70;1.10;;;;;;;6.76;78.05;102939.47;6099772;19;20018;-74
2023/03/04 08:44:50;;;;;;;4.72;1.70;;;;;;;6.80;78.21;102937.78;6100360;19;20011;-74
2023/03/04 08:46:55;;;;;;;1.42;1.10;;;;;;;6.61;78.94;102941.97;6098792;19;20037;-74
2023/03/04 08:49:00;;;;;;;5.30;1.33;;;;;;;6.38;81.07;102949.56;6099480;19;20097;-74
2023/03/04 08:51:09;;;;;;;6.78;1.95;;;;;;;6.06;83.78;102946.59;6100019;19;20003;-75
2023/03/04 08:53:17;;;;;;;2.78;1.00;;;;;;;6.00;84.76;102947.38;6096433;19;20098;-74
2023/03/04 08:55:22;;;;;;;2.70;1.50;;;;;;;5.82;86.62;102948.00;6095807;19;20047;-73
2023/03/04 08:57:27;;;;;;;3.30;1.35;;;;;;;5.82;87.50;102947.09;6099734;19;20342;-73
2023/03/04 08:59:31;;;;;;;3.63;1.30;;;;;;;5.69;87.89;102944.34;6098408;19;20013;-73
2023/03/04 09:01:36;;;;;;;4.35;1.30;;;;;;;5.62;88.45;102939.91;6100107;19;20034;-74
2023/03/04 09:03:42;;;;;;;3.63;1.27;;;;;;;5.68;88.91;102934.75;6096087;19;20006;-74
2023/03/04 09:05:48;;;;;;;6.05;1.63;;;;;;;5.83;88.77;102941.91;6095550;19;20014;-74
2023/03/04 09:07:53;;;;;;;1.67;1.13;;;;;;;5.86;88.01;102941.09;6096617;19;20021;-75
2023/03/04 09:10:00;;;;;;;3.17;1.52;;;;;;;5.97;87.10;102936.03;6097721;19;20025;-75
2023/03/04 09:12:06;;;;;;;3.88;1.45;;;;;;;6.18;86.17;102933.66;6092241;19;20024;-75
2023/03/04 09:14:11;;;;;;;3.83;1.25;;;;;;;6.23;85.12;102934.59;6074653;19;20555;-75
2023/03/04 09:16:17;;;;;;;2.35;1.38;;;;;;;6.41;84.95;102927.84;6092018;19;20019;-75
2023/03/04 09:18:24;;;;;;;4.28;1.50;;;;;;;6.85;84.17;102932.63;6090920;19;20097;-75
2023/03/04 09:20:28;;;;;;;5.63;2.15;;;;;;;6.86;83.36;102924.78;6094931;19;20133;-75
2023/03/04 09:22:33;;;;;;;3.10;1.40;;;;;;;7.05;82.78;102920.56;6099657;19;20017;-76
2023/03/04 09:24:38;;;;;;;4.72;1.77;;;;;;;7.02;81.79;102913.56;6096073;19;20021;-75
2023/03/04 09:26:45;;;;;;;2.20;1.40;;;;;;;6.90;82.21;102918.72;6094914;19;20023;-74
2023/03/04 09:28:53;;;;;;;3.08;1.60;;;;;;;7.24;82.10;102919.84;6097379;19;20022;-74
2023/03/04 09:30:57;;;;;;;4.65;1.70;;;;;;;7.67;81.62;102913.97;6098907;19;20047;-75
2023/03/04 09:33:02;;;;;;;4.75;1.50;;;;;;;7.58;79.27;102913.91;6096710;19;20015;-72
2023/03/04 09:35:08;;;;;;;3.58;2.00;;;;;;;7.85;78.76;102914.06;6074486;19;20679;-75
2023/03/04 09:37:13;;;;;;;3.30;1.45;;;;;;;7.79;78.25;102907.91;6101190;19;20022;-75
2023/03/04 09:39:18;;;;;;;5.88;1.73;;;;;;;7.37;80.26;102920.81;6093783;19;20026;-75
2023/03/04 09:41:25;;;;;;;4.05;1.80;;;;;;;7.17;80.21;102917.16;6096685;19;20031;-73
2023/03/04 09:43:34;;;;;;;10.00;2.22;;;;;;;7.30;80.45;102923.38;6095908;19;20011;-74
2023/03/04 09:45:47;;;;;;;5.57;1.55;;;;;;;7.40;80.60;102912.97;6076061;19;20008;-74
2023/03/04 09:47:55;;;;;;;2.25;1.50;;;;;;;7.31;80.06;102917.25;6097596;19;20018;-74
2023/03/04 09:50:02;;;;;;;5.95;1.67;;;;;;;7.17;80.08;102917.16;6096144;19;20778;-74
2023/03/04 09:52:19;;;;;;;2.83;1.50;;;;;;;7.29;79.25;102918.97;6097338;19;20750;-74